sensor_id;sensor_type;location;lat;lon;timestamp;temperature;humidity
78028;DHT22;67235;45.638;11.714;2023-04-15T00:01:37;10.60;71.60
78028;DHT22;67235;45.638;11.714;2023-04-15T00:04:03;10.60;71.30
78028;DHT22;67235;45.638;11.714;2023-04-15T00:06:29;10.60;71.40
78028;DHT22;67235;45.638;11.714;2023-04-15T00:08:55;10.60;71.00
78028;DHT22;67235;45.638;11.714;2023-04-15T00:11:21;10.50;71.10
78028;DHT22;67235;45.638;11.714;2023-04-15T00:13:48;10.30;71.20
78028;DHT22;67235;45.638;11.714;2023-04-15T00:16:14;10.40;71.40
78028;DHT22;67235;45.638;11.714;2023-04-15T00:18:41;10.20;71.50
78028;DHT22;67235;45.638;11.714;2023-04-15T00:21:07;10.10;71.60
78028;DHT22;67235;45.638;11.714;2023-04-15T00:23:34;10.20;71.80
78028;DHT22;67235;45.638;11.714;2023-04-15T00:26:01;10.00;71.90
78028;DHT22;67235;45.638;11.714;2023-04-15T00:28:27;10.00;71.60
78028;DHT22;67235;45.638;11.714;2023-04-15T00:30:53;9.90;72.10
78028;DHT22;67235;45.638;11.714;2023-04-15T00:33:19;9.80;71.70
78028;DHT22;67235;45.638;11.714;2023-04-15T00:35:44;9.70;71.80
78028;DHT22;67235;45.638;11.714;2023-04-15T00:38:11;9.60;72.40
78028;DHT22;67235;45.638;11.714;2023-04-15T00:40:37;9.30;72.60
78028;DHT22;67235;45.638;11.714;2023-04-15T00:43:03;9.40;72.90
78028;DHT22;67235;45.638;11.714;2023-04-15T00:45:30;9.40;72.70
78028;DHT22;67235;45.638;11.714;2023-04-15T00:47:56;9.50;72.70
78028;DHT22;67235;45.638;11.714;2023-04-15T00:50:23;9.50;72.60
78028;DHT22;67235;45.638;11.714;2023-04-15T00:52:48;9.60;72.10
78028;DHT22;67235;45.638;11.714;2023-04-15T00:55:14;9.60;72.40
78028;DHT22;67235;45.638;11.714;2023-04-15T00:57:41;9.60;72.40
78028;DHT22;67235;45.638;11.714;2023-04-15T01:00:07;9.60;72.30
78028;DHT22;67235;45.638;11.714;2023-04-15T01:02:35;9.50;72.60
78028;DHT22;67235;45.638;11.714;2023-04-15T01:05:02;9.30;72.80
78028;DHT22;67235;45.638;11.714;2023-04-15T01:07:29;9.30;72.60
78028;DHT22;67235;45.638;11.714;2023-04-15T01:09:55;9.40;72.60
78028;DHT22;67235;45.638;11.714;2023-04-15T01:12:21;9.40;72.70
78028;DHT22;67235;45.638;11.714;2023-04-15T01:14:49;9.40;72.50
78028;DHT22;67235;45.638;11.714;2023-04-15T01:17:15;9.40;72.50
78028;DHT22;67235;45.638;11.714;2023-04-15T01:19:42;9.40;72.10
78028;DHT22;67235;45.638;11.714;2023-04-15T01:22:08;9.40;72.50
78028;DHT22;67235;45.638;11.714;2023-04-15T01:24:35;9.40;72.60
78028;DHT22;67235;45.638;11.714;2023-04-15T01:27:03;9.40;72.30
78028;DHT22;67235;45.638;11.714;2023-04-15T01:29:34;9.50;72.60
78028;DHT22;67235;45.638;11.714;2023-04-15T01:32:00;9.30;72.70
78028;DHT22;67235;45.638;11.714;2023-04-15T01:34:26;9.30;72.60
78028;DHT22;67235;45.638;11.714;2023-04-15T01:36:52;9.40;72.40
78028;DHT22;67235;45.638;11.714;2023-04-15T01:39:18;9.50;72.40
78028;DHT22;67235;45.638;11.714;2023-04-15T01:41:44;9.50;72.10
78028;DHT22;67235;45.638;11.714;2023-04-15T01:44:10;9.50;72.40
78028;DHT22;67235;45.638;11.714;2023-04-15T01:46:36;9.50;72.20
78028;DHT22;67235;45.638;11.714;2023-04-15T01:49:02;9.50;72.20
78028;DHT22;67235;45.638;11.714;2023-04-15T01:51:27;9.40;72.10
78028;DHT22;67235;45.638;11.714;2023-04-15T01:53:53;9.40;72.20
78028;DHT22;67235;45.638;11.714;2023-04-15T01:56:21;9.50;72.20
78028;DHT22;67235;45.638;11.714;2023-04-15T01:58:49;9.40;72.10
78028;DHT22;67235;45.638;11.714;2023-04-15T02:01:14;9.40;72.20
78028;DHT22;67235;45.638;11.714;2023-04-15T02:03:44;9.50;72.10
78028;DHT22;67235;45.638;11.714;2023-04-15T02:06:10;9.40;72.20
78028;DHT22;67235;45.638;11.714;2023-04-15T02:08:36;9.40;72.40
78028;DHT22;67235;45.638;11.714;2023-04-15T02:11:01;9.40;72.40
78028;DHT22;67235;45.638;11.714;2023-04-15T02:13:27;9.40;72.50
78028;DHT22;67235;45.638;11.714;2023-04-15T02:15:54;9.30;72.80
78028;DHT22;67235;45.638;11.714;2023-04-15T02:18:20;9.30;72.70
78028;DHT22;67235;45.638;11.714;2023-04-15T02:20:46;9.40;72.40
78028;DHT22;67235;45.638;11.714;2023-04-15T02:23:13;9.30;72.50
78028;DHT22;67235;45.638;11.714;2023-04-15T02:25:39;9.30;72.60
78028;DHT22;67235;45.638;11.714;2023-04-15T02:28:05;9.30;72.60
78028;DHT22;67235;45.638;11.714;2023-04-15T02:30:31;9.20;72.50
78028;DHT22;67235;45.638;11.714;2023-04-15T02:32:58;9.20;72.60
78028;DHT22;67235;45.638;11.714;2023-04-15T02:35:24;9.10;72.70
78028;DHT22;67235;45.638;11.714;2023-04-15T02:37:50;9.00;73.10
78028;DHT22;67235;45.638;11.714;2023-04-15T02:40:17;9.10;72.80
78028;DHT22;67235;45.638;11.714;2023-04-15T02:42:43;9.10;72.80
78028;DHT22;67235;45.638;11.714;2023-04-15T02:45:09;9.10;72.70
78028;DHT22;67235;45.638;11.714;2023-04-15T02:47:36;9.00;72.50
78028;DHT22;67235;45.638;11.714;2023-04-15T02:50:10;9.00;72.40
78028;DHT22;67235;45.638;11.714;2023-04-15T02:52:39;8.90;72.50
78028;DHT22;67235;45.638;11.714;2023-04-15T02:55:06;9.00;72.70
78028;DHT22;67235;45.638;11.714;2023-04-15T02:57:32;8.90;72.50
78028;DHT22;67235;45.638;11.714;2023-04-15T02:59:59;8.90;72.50
78028;DHT22;67235;45.638;11.714;2023-04-15T03:02:25;8.90;72.40
78028;DHT22;67235;45.638;11.714;2023-04-15T03:04:51;8.80;72.70
78028;DHT22;67235;45.638;11.714;2023-04-15T03:07:17;8.80;72.60
78028;DHT22;67235;45.638;11.714;2023-04-15T03:09:43;8.80;72.70
78028;DHT22;67235;45.638;11.714;2023-04-15T03:12:09;8.80;72.70
78028;DHT22;67235;45.638;11.714;2023-04-15T03:14:35;8.80;72.70
78028;DHT22;67235;45.638;11.714;2023-04-15T03:17:01;8.90;72.70
78028;DHT22;67235;45.638;11.714;2023-04-15T03:19:27;8.90;72.80
78028;DHT22;67235;45.638;11.714;2023-04-15T03:21:53;8.90;72.90
78028;DHT22;67235;45.638;11.714;2023-04-15T03:24:19;8.80;72.60
78028;DHT22;67235;45.638;11.714;2023-04-15T03:26:45;8.90;72.70
78028;DHT22;67235;45.638;11.714;2023-04-15T03:29:11;9.00;72.80
78028;DHT22;67235;45.638;11.714;2023-04-15T03:31:37;9.00;72.90
78028;DHT22;67235;45.638;11.714;2023-04-15T03:34:02;9.00;72.80
78028;DHT22;67235;45.638;11.714;2023-04-15T03:36:29;9.10;72.90
78028;DHT22;67235;45.638;11.714;2023-04-15T03:38:57;9.00;72.80
78028;DHT22;67235;45.638;11.714;2023-04-15T03:41:23;9.10;72.50
78028;DHT22;67235;45.638;11.714;2023-04-15T03:43:49;9.10;72.60
78028;DHT22;67235;45.638;11.714;2023-04-15T03:46:17;9.10;72.40
78028;DHT22;67235;45.638;11.714;2023-04-15T03:48:43;9.10;72.40
78028;DHT22;67235;45.638;11.714;2023-04-15T03:51:09;9.00;72.50
78028;DHT22;67235;45.638;11.714;2023-04-15T03:53:35;9.00;72.60
78028;DHT22;67235;45.638;11.714;2023-04-15T03:56:01;9.00;72.50
78028;DHT22;67235;45.638;11.714;2023-04-15T03:58:27;8.90;72.30
78028;DHT22;67235;45.638;11.714;2023-04-15T04:00:53;8.90;72.60
78028;DHT22;67235;45.638;11.714;2023-04-15T04:03:19;8.90;72.50
78028;DHT22;67235;45.638;11.714;2023-04-15T04:05:45;8.80;72.60
78028;DHT22;67235;45.638;11.714;2023-04-15T04:08:11;8.60;72.50
78028;DHT22;67235;45.638;11.714;2023-04-15T04:10:41;8.40;72.50
78028;DHT22;67235;45.638;11.714;2023-04-15T04:13:07;8.40;72.40
78028;DHT22;67235;45.638;11.714;2023-04-15T04:15:33;8.20;72.50
78028;DHT22;67235;45.638;11.714;2023-04-15T04:17:59;8.00;72.40
78028;DHT22;67235;45.638;11.714;2023-04-15T04:20:25;8.10;72.70
78028;DHT22;67235;45.638;11.714;2023-04-15T04:25:58;8.00;72.80
78028;DHT22;67235;45.638;11.714;2023-04-15T04:32:13;7.70;73.40
78028;DHT22;67235;45.638;11.714;2023-04-15T04:35:24;7.90;72.70
78028;DHT22;67235;45.638;11.714;2023-04-15T04:41:45;7.90;72.70
78028;DHT22;67235;45.638;11.714;2023-04-15T04:45:17;7.80;72.70
78028;DHT22;67235;45.638;11.714;2023-04-15T04:48:49;8.10;72.50
78028;DHT22;67235;45.638;11.714;2023-04-15T04:51:52;8.20;72.70
78028;DHT22;67235;45.638;11.714;2023-04-15T04:55:27;8.40;73.00
78028;DHT22;67235;45.638;11.714;2023-04-15T05:01:00;8.60;71.90
78028;DHT22;67235;45.638;11.714;2023-04-15T05:04:19;8.80;71.70
78028;DHT22;67235;45.638;11.714;2023-04-15T05:07:37;9.00;71.40
78028;DHT22;67235;45.638;11.714;2023-04-15T05:10:56;9.30;71.10
78028;DHT22;67235;45.638;11.714;2023-04-15T05:16:08;9.60;70.50
78028;DHT22;67235;45.638;11.714;2023-04-15T05:19:13;9.60;70.50
78028;DHT22;67235;45.638;11.714;2023-04-15T05:22:45;9.70;70.40
78028;DHT22;67235;45.638;11.714;2023-04-15T05:25:58;9.70;70.10
78028;DHT22;67235;45.638;11.714;2023-04-15T05:32:07;10.30;69.90
78028;DHT22;67235;45.638;11.714;2023-04-15T05:35:02;10.50;69.70
78028;DHT22;67235;45.638;11.714;2023-04-15T05:37:51;10.80;68.70
78028;DHT22;67235;45.638;11.714;2023-04-15T05:40:58;10.60;68.50
78028;DHT22;67235;45.638;11.714;2023-04-15T05:43:24;10.50;68.70
78028;DHT22;67235;45.638;11.714;2023-04-15T05:46:14;10.50;68.90
78028;DHT22;67235;45.638;11.714;2023-04-15T05:49:55;10.40;68.80
78028;DHT22;67235;45.638;11.714;2023-04-15T05:53:00;10.50;69.00
78028;DHT22;67235;45.638;11.714;2023-04-15T05:59:36;10.70;69.30
78028;DHT22;67235;45.638;11.714;2023-04-15T06:02:27;10.70;69.50
78028;DHT22;67235;45.638;11.714;2023-04-15T06:04:53;10.90;69.40
78028;DHT22;67235;45.638;11.714;2023-04-15T06:07:19;11.20;69.30
78028;DHT22;67235;45.638;11.714;2023-04-15T06:09:46;11.20;69.30
78028;DHT22;67235;45.638;11.714;2023-04-15T06:12:12;11.30;69.10
78028;DHT22;67235;45.638;11.714;2023-04-15T06:14:40;11.40;69.10
78028;DHT22;67235;45.638;11.714;2023-04-15T06:17:10;11.60;69.00
78028;DHT22;67235;45.638;11.714;2023-04-15T06:19:40;11.80;69.40
78028;DHT22;67235;45.638;11.714;2023-04-15T06:22:08;12.30;68.60
78028;DHT22;67235;45.638;11.714;2023-04-15T06:24:36;12.40;68.20
78028;DHT22;67235;45.638;11.714;2023-04-15T06:27:07;12.70;66.60
78028;DHT22;67235;45.638;11.714;2023-04-15T06:29:37;12.80;66.50
78028;DHT22;67235;45.638;11.714;2023-04-15T06:32:08;13.30;66.50
78028;DHT22;67235;45.638;11.714;2023-04-15T06:34:40;13.90;65.80
78028;DHT22;67235;45.638;11.714;2023-04-15T06:37:16;14.80;64.80
78028;DHT22;67235;45.638;11.714;2023-04-15T06:39:43;15.30;64.00
78028;DHT22;67235;45.638;11.714;2023-04-15T06:42:13;15.70;53.50
78028;DHT22;67235;45.638;11.714;2023-04-15T06:44:42;15.40;63.90
78028;DHT22;67235;45.638;11.714;2023-04-15T06:47:08;14.90;64.70
78028;DHT22;67235;45.638;11.714;2023-04-15T06:49:34;14.70;65.10
78028;DHT22;67235;45.638;11.714;2023-04-15T06:52:01;14.50;65.60
78028;DHT22;67235;45.638;11.714;2023-04-15T06:54:27;14.60;65.70
78028;DHT22;67235;45.638;11.714;2023-04-15T06:56:55;15.10;65.70
78028;DHT22;67235;45.638;11.714;2023-04-15T06:59:21;15.50;64.10
78028;DHT22;67235;45.638;11.714;2023-04-15T07:01:47;15.70;63.90
78028;DHT22;67235;45.638;11.714;2023-04-15T07:04:13;16.40;63.70
78028;DHT22;67235;45.638;11.714;2023-04-15T07:06:40;17.10;62.90
78028;DHT22;67235;45.638;11.714;2023-04-15T07:09:06;17.60;54.00
78028;DHT22;67235;45.638;11.714;2023-04-15T07:11:39;18.20;52.00
78028;DHT22;67235;45.638;11.714;2023-04-15T07:14:05;18.50;50.00
78028;DHT22;67235;45.638;11.714;2023-04-15T07:16:35;17.30;54.50
78028;DHT22;67235;45.638;11.714;2023-04-15T07:19:05;17.00;63.20
78028;DHT22;67235;45.638;11.714;2023-04-15T07:21:31;17.30;62.90
78028;DHT22;67235;45.638;11.714;2023-04-15T07:23:58;17.20;54.60
78028;DHT22;67235;45.638;11.714;2023-04-15T07:26:28;17.00;63.10
78028;DHT22;67235;45.638;11.714;2023-04-15T07:29:10;16.80;63.20
78028;DHT22;67235;45.638;11.714;2023-04-15T07:31:39;17.10;63.20
78028;DHT22;67235;45.638;11.714;2023-04-15T07:34:15;16.90;63.60
78028;DHT22;67235;45.638;11.714;2023-04-15T07:36:50;17.20;63.20
78028;DHT22;67235;45.638;11.714;2023-04-15T07:39:18;17.60;62.70
78028;DHT22;67235;45.638;11.714;2023-04-15T07:42:11;17.20;63.00
78028;DHT22;67235;45.638;11.714;2023-04-15T07:44:41;17.70;63.40
78028;DHT22;67235;45.638;11.714;2023-04-15T07:47:07;18.40;51.00
78028;DHT22;67235;45.638;11.714;2023-04-15T07:49:34;18.90;51.70
78028;DHT22;67235;45.638;11.714;2023-04-15T07:52:00;18.90;49.40
78028;DHT22;67235;45.638;11.714;2023-04-15T07:54:28;19.00;49.50
78028;DHT22;67235;45.638;11.714;2023-04-15T07:56:56;19.20;48.50
78028;DHT22;67235;45.638;11.714;2023-04-15T07:59:24;18.80;49.60
78028;DHT22;67235;45.638;11.714;2023-04-15T08:01:52;19.10;48.80
78028;DHT22;67235;45.638;11.714;2023-04-15T08:04:20;19.70;49.10
78028;DHT22;67235;45.638;11.714;2023-04-15T08:06:46;19.60;47.60
78028;DHT22;67235;45.638;11.714;2023-04-15T08:09:16;19.50;47.20
78028;DHT22;67235;45.638;11.714;2023-04-15T08:11:47;19.10;48.20
78028;DHT22;67235;45.638;11.714;2023-04-15T08:14:13;19.40;47.70
78028;DHT22;67235;45.638;11.714;2023-04-15T08:16:40;19.40;47.00
78028;DHT22;67235;45.638;11.714;2023-04-15T08:19:07;19.20;48.30
78028;DHT22;67235;45.638;11.714;2023-04-15T08:21:35;19.20;48.10
78028;DHT22;67235;45.638;11.714;2023-04-15T08:24:01;19.20;48.80
78028;DHT22;67235;45.638;11.714;2023-04-15T08:26:27;19.60;49.70
78028;DHT22;67235;45.638;11.714;2023-04-15T08:28:53;19.60;47.80
78028;DHT22;67235;45.638;11.714;2023-04-15T08:33:52;19.00;49.80
78028;DHT22;67235;45.638;11.714;2023-04-15T08:36:22;19.90;46.90
78028;DHT22;67235;45.638;11.714;2023-04-15T08:42:22;20.40;45.50
78028;DHT22;67235;45.638;11.714;2023-04-15T08:45:23;20.40;45.90
78028;DHT22;67235;45.638;11.714;2023-04-15T08:48:19;19.60;47.30
78028;DHT22;67235;45.638;11.714;2023-04-15T08:51:02;19.20;49.70
78028;DHT22;67235;45.638;11.714;2023-04-15T08:53:29;19.60;47.00
78028;DHT22;67235;45.638;11.714;2023-04-15T08:56:08;19.50;48.90
78028;DHT22;67235;45.638;11.714;2023-04-15T09:02:03;19.50;49.90
78028;DHT22;67235;45.638;11.714;2023-04-15T09:08:15;20.20;47.40
78028;DHT22;67235;45.638;11.714;2023-04-15T09:14:59;19.30;50.10
78028;DHT22;67235;45.638;11.714;2023-04-15T09:18:02;19.60;48.30
78028;DHT22;67235;45.638;11.714;2023-04-15T09:20:43;18.60;51.70
78028;DHT22;67235;45.638;11.714;2023-04-15T09:24:18;18.10;52.80
78028;DHT22;67235;45.638;11.714;2023-04-15T09:26:43;18.30;52.80
78028;DHT22;67235;45.638;11.714;2023-04-15T09:29:17;18.20;52.10
78028;DHT22;67235;45.638;11.714;2023-04-15T09:32:20;18.10;53.50
78028;DHT22;67235;45.638;11.714;2023-04-15T09:35:24;18.60;50.50
78028;DHT22;67235;45.638;11.714;2023-04-15T09:38:04;18.90;50.80
78028;DHT22;67235;45.638;11.714;2023-04-15T09:40:40;18.60;52.50
78028;DHT22;67235;45.638;11.714;2023-04-15T09:43:08;18.50;53.80
78028;DHT22;67235;45.638;11.714;2023-04-15T09:45:36;18.80;52.30
78028;DHT22;67235;45.638;11.714;2023-04-15T12:06:04;20.00;42.90
78028;DHT22;67235;45.638;11.714;2023-04-15T12:09:09;19.80;40.40
78028;DHT22;67235;45.638;11.714;2023-04-15T12:11:47;20.10;41.40
78028;DHT22;67235;45.638;11.714;2023-04-15T12:27:35;20.20;37.40
78028;DHT22;67235;45.638;11.714;2023-04-15T12:30:53;20.10;41.00
78028;DHT22;67235;45.638;11.714;2023-04-15T12:42:22;19.50;41.30
78028;DHT22;67235;45.638;11.714;2023-04-15T12:47:37;19.80;42.90
78028;DHT22;67235;45.638;11.714;2023-04-15T12:50:05;19.90;42.40
78028;DHT22;67235;45.638;11.714;2023-04-15T12:52:32;20.10;41.90
78028;DHT22;67235;45.638;11.714;2023-04-15T12:55:01;19.90;42.50
78028;DHT22;67235;45.638;11.714;2023-04-15T14:49:37;19.80;37.20
78028;DHT22;67235;45.638;11.714;2023-04-15T14:59:40;20.20;35.80
78028;DHT22;67235;45.638;11.714;2023-04-15T15:02:49;20.00;36.40
78028;DHT22;67235;45.638;11.714;2023-04-15T15:05:49;20.20;35.80
78028;DHT22;67235;45.638;11.714;2023-04-15T15:11:32;19.50;42.60
78028;DHT22;67235;45.638;11.714;2023-04-15T15:21:20;19.00;42.40
78028;DHT22;67235;45.638;11.714;2023-04-15T15:23:55;18.00;46.20
78028;DHT22;67235;45.638;11.714;2023-04-15T15:26:31;17.20;48.00
78028;DHT22;67235;45.638;11.714;2023-04-15T15:29:05;17.20;51.30
78028;DHT22;67235;45.638;11.714;2023-04-15T15:31:38;16.70;48.00
78028;DHT22;67235;45.638;11.714;2023-04-15T15:34:14;16.40;50.80
78028;DHT22;67235;45.638;11.714;2023-04-15T15:37:01;16.30;49.60
78028;DHT22;67235;45.638;11.714;2023-04-15T15:39:47;16.10;49.60
78028;DHT22;67235;45.638;11.714;2023-04-15T15:42:45;16.10;49.50
78028;DHT22;67235;45.638;11.714;2023-04-15T15:45:29;16.00;49.10
78028;DHT22;67235;45.638;11.714;2023-04-15T15:48:30;15.90;46.90
78028;DHT22;67235;45.638;11.714;2023-04-15T15:54:34;16.00;46.40
78028;DHT22;67235;45.638;11.714;2023-04-15T15:57:52;16.20;48.80
78028;DHT22;67235;45.638;11.714;2023-04-15T16:01:00;16.30;48.10
78028;DHT22;67235;45.638;11.714;2023-04-15T16:17:21;16.30;46.50
78028;DHT22;67235;45.638;11.714;2023-04-15T16:19:57;16.30;45.70
78028;DHT22;67235;45.638;11.714;2023-04-15T16:23:17;16.10;46.10
78028;DHT22;67235;45.638;11.714;2023-04-15T16:26:11;16.00;47.60
78028;DHT22;67235;45.638;11.714;2023-04-15T16:35:17;15.80;45.20
78028;DHT22;67235;45.638;11.714;2023-04-15T16:38:04;15.60;47.80
78028;DHT22;67235;45.638;11.714;2023-04-15T16:44:25;15.60;47.50
78028;DHT22;67235;45.638;11.714;2023-04-15T16:47:05;15.50;48.70
78028;DHT22;67235;45.638;11.714;2023-04-15T16:50:03;15.40;50.60
78028;DHT22;67235;45.638;11.714;2023-04-15T17:12:21;15.20;63.20
78028;DHT22;67235;45.638;11.714;2023-04-15T17:15:47;15.10;63.30
78028;DHT22;67235;45.638;11.714;2023-04-15T17:43:53;14.40;64.30
78028;DHT22;67235;45.638;11.714;2023-04-15T17:49:07;14.40;64.30
78028;DHT22;67235;45.638;11.714;2023-04-15T17:54:56;14.30;64.30
78028;DHT22;67235;45.638;11.714;2023-04-15T18:03:21;14.10;65.30
78028;DHT22;67235;45.638;11.714;2023-04-15T18:06:17;13.90;65.50
78028;DHT22;67235;45.638;11.714;2023-04-15T18:11:53;13.70;65.70
78028;DHT22;67235;45.638;11.714;2023-04-15T18:14:27;13.70;65.90
78028;DHT22;67235;45.638;11.714;2023-04-15T18:17:30;13.50;66.00
78028;DHT22;67235;45.638;11.714;2023-04-15T18:20:57;13.50;66.00
78028;DHT22;67235;45.638;11.714;2023-04-15T18:34:14;13.30;66.30
78028;DHT22;67235;45.638;11.714;2023-04-15T18:37:01;13.20;66.40
78028;DHT22;67235;45.638;11.714;2023-04-15T19:02:30;12.90;66.50
78028;DHT22;67235;45.638;11.714;2023-04-15T19:07:54;12.90;66.40
78028;DHT22;67235;45.638;11.714;2023-04-15T19:11:07;12.80;66.40
78028;DHT22;67235;45.638;11.714;2023-04-15T19:14:17;12.80;66.10
78028;DHT22;67235;45.638;11.714;2023-04-15T19:19:56;12.70;65.90
78028;DHT22;67235;45.638;11.714;2023-04-15T19:27:36;12.60;67.00
78028;DHT22;67235;45.638;11.714;2023-04-15T19:31:08;12.70;67.00
78028;DHT22;67235;45.638;11.714;2023-04-15T19:34:11;12.70;66.90
78028;DHT22;67235;45.638;11.714;2023-04-15T19:37:33;12.60;66.70
78028;DHT22;67235;45.638;11.714;2023-04-15T19:42:55;12.60;67.60
78028;DHT22;67235;45.638;11.714;2023-04-15T19:45:28;12.50;67.60
78028;DHT22;67235;45.638;11.714;2023-04-15T19:47:56;12.50;67.70
78028;DHT22;67235;45.638;11.714;2023-04-15T19:53:00;12.30;66.90
78028;DHT22;67235;45.638;11.714;2023-04-15T19:58:04;12.30;66.90
78028;DHT22;67235;45.638;11.714;2023-04-15T20:00:39;12.40;66.90
78028;DHT22;67235;45.638;11.714;2023-04-15T20:03:21;12.30;66.90
78028;DHT22;67235;45.638;11.714;2023-04-15T20:08:16;12.30;66.80
78028;DHT22;67235;45.638;11.714;2023-04-15T20:10:49;12.40;66.90
78028;DHT22;67235;45.638;11.714;2023-04-15T20:13:37;12.30;66.90
78028;DHT22;67235;45.638;11.714;2023-04-15T20:16:03;12.30;66.90
78028;DHT22;67235;45.638;11.714;2023-04-15T20:19:14;12.20;66.90
78028;DHT22;67235;45.638;11.714;2023-04-15T20:22:42;12.20;66.60
78028;DHT22;67235;45.638;11.714;2023-04-15T20:25:41;12.10;66.60
78028;DHT22;67235;45.638;11.714;2023-04-15T20:34:10;12.20;66.90
78028;DHT22;67235;45.638;11.714;2023-04-15T20:42:35;12.10;66.90
78028;DHT22;67235;45.638;11.714;2023-04-15T20:45:49;12.00;67.00
78028;DHT22;67235;45.638;11.714;2023-04-15T20:48:42;11.90;67.10
78028;DHT22;67235;45.638;11.714;2023-04-15T20:51:32;12.00;67.30
78028;DHT22;67235;45.638;11.714;2023-04-15T20:55:19;11.90;67.20
78028;DHT22;67235;45.638;11.714;2023-04-15T21:01:00;11.70;67.50
78028;DHT22;67235;45.638;11.714;2023-04-15T21:04:16;11.60;67.70
78028;DHT22;67235;45.638;11.714;2023-04-15T21:14:43;11.50;68.20
78028;DHT22;67235;45.638;11.714;2023-04-15T21:17:14;11.50;68.20
78028;DHT22;67235;45.638;11.714;2023-04-15T21:19:42;11.60;68.30
78028;DHT22;67235;45.638;11.714;2023-04-15T21:22:09;11.50;68.30
78028;DHT22;67235;45.638;11.714;2023-04-15T21:24:47;11.50;68.40
78028;DHT22;67235;45.638;11.714;2023-04-15T21:30:12;11.40;68.50
78028;DHT22;67235;45.638;11.714;2023-04-15T21:32:44;11.50;68.50
78028;DHT22;67235;45.638;11.714;2023-04-15T21:35:17;11.40;68.50
78028;DHT22;67235;45.638;11.714;2023-04-15T21:37:50;11.40;68.70
78028;DHT22;67235;45.638;11.714;2023-04-15T21:40:40;11.30;68.50
78028;DHT22;67235;45.638;11.714;2023-04-15T21:43:09;11.40;68.60
78028;DHT22;67235;45.638;11.714;2023-04-15T21:46:01;11.20;68.70
78028;DHT22;67235;45.638;11.714;2023-04-15T21:49:03;11.20;68.70
78028;DHT22;67235;45.638;11.714;2023-04-15T21:52:09;11.10;68.90
78028;DHT22;67235;45.638;11.714;2023-04-15T21:54:49;11.10;68.90
78028;DHT22;67235;45.638;11.714;2023-04-15T21:57:28;11.00;69.10
78028;DHT22;67235;45.638;11.714;2023-04-15T22:03:33;10.90;69.10
78028;DHT22;67235;45.638;11.714;2023-04-15T22:12:30;10.90;68.80
78028;DHT22;67235;45.638;11.714;2023-04-15T22:17:44;10.90;68.90
78028;DHT22;67235;45.638;11.714;2023-04-15T22:20:13;10.90;68.80
78028;DHT22;67235;45.638;11.714;2023-04-15T22:31:33;10.70;69.00
78028;DHT22;67235;45.638;11.714;2023-04-15T22:34:07;10.80;68.90
78028;DHT22;67235;45.638;11.714;2023-04-15T22:36:57;10.90;68.80
78028;DHT22;67235;45.638;11.714;2023-04-15T22:40:12;10.90;68.80
78028;DHT22;67235;45.638;11.714;2023-04-15T22:42:59;10.90;68.60
78028;DHT22;67235;45.638;11.714;2023-04-15T22:48:10;10.90;68.70
78028;DHT22;67235;45.638;11.714;2023-04-15T22:53:16;10.70;68.70
78028;DHT22;67235;45.638;11.714;2023-04-15T22:55:48;10.40;68.90
78028;DHT22;67235;45.638;11.714;2023-04-15T22:58:16;10.10;69.50
78028;DHT22;67235;45.638;11.714;2023-04-15T23:00:47;10.00;69.90
78028;DHT22;67235;45.638;11.714;2023-04-15T23:03:18;9.90;69.80
78028;DHT22;67235;45.638;11.714;2023-04-15T23:05:45;9.80;69.70
78028;DHT22;67235;45.638;11.714;2023-04-15T23:08:15;9.80;69.90
78028;DHT22;67235;45.638;11.714;2023-04-15T23:10:49;9.70;70.10
78028;DHT22;67235;45.638;11.714;2023-04-15T23:13:17;9.60;70.00
78028;DHT22;67235;45.638;11.714;2023-04-15T23:15:45;9.30;70.10
78028;DHT22;67235;45.638;11.714;2023-04-15T23:18:16;9.30;70.30
78028;DHT22;67235;45.638;11.714;2023-04-15T23:20:43;9.30;70.50
78028;DHT22;67235;45.638;11.714;2023-04-15T23:23:19;9.20;70.70
78028;DHT22;67235;45.638;11.714;2023-04-15T23:25:59;9.20;70.50
78028;DHT22;67235;45.638;11.714;2023-04-15T23:28:34;9.40;70.60
78028;DHT22;67235;45.638;11.714;2023-04-15T23:31:09;9.30;70.70
78028;DHT22;67235;45.638;11.714;2023-04-15T23:33:38;9.20;70.20
78028;DHT22;67235;45.638;11.714;2023-04-15T23:36:30;8.90;70.60
78028;DHT22;67235;45.638;11.714;2023-04-15T23:38:57;8.90;70.80
78028;DHT22;67235;45.638;11.714;2023-04-15T23:41:47;8.80;70.80
78028;DHT22;67235;45.638;11.714;2023-04-15T23:44:25;8.70;70.70
78028;DHT22;67235;45.638;11.714;2023-04-15T23:46:57;8.60;70.60
78028;DHT22;67235;45.638;11.714;2023-04-15T23:49:28;8.70;70.80
78028;DHT22;67235;45.638;11.714;2023-04-15T23:52:22;8.70;70.60
78028;DHT22;67235;45.638;11.714;2023-04-15T23:54:52;8.60;70.50
78028;DHT22;67235;45.638;11.714;2023-04-15T23:57:27;8.60;70.70
78028;DHT22;67235;45.638;11.714;2023-04-15T23:59:59;8.70;70.00
